createdAt,value
2018-02-14T00:00:45.604Z,996.58
2018-02-14T00:01:51.449Z,996.60
2018-02-14T00:02:56.973Z,996.61
2018-02-14T00:04:02.636Z,996.58
2018-02-14T00:05:08.975Z,996.57
2018-02-14T00:06:14.789Z,996.60
2018-02-14T00:07:20.696Z,996.60
2018-02-14T00:08:26.474Z,996.58
2018-02-14T00:09:32.341Z,996.62
2018-02-14T00:10:38.190Z,996.61
2018-02-14T00:11:44.048Z,996.62
2018-02-14T00:12:49.881Z,996.64
2018-02-14T00:13:55.729Z,996.61
2018-02-14T00:15:01.590Z,996.62
2018-02-14T00:16:07.442Z,996.60
2018-02-14T00:17:13.251Z,996.65
2018-02-14T00:18:19.223Z,996.64
2018-02-14T00:19:24.969Z,996.63
2018-02-14T00:20:30.792Z,996.65
2018-02-14T00:21:36.610Z,996.64
2018-02-14T00:22:42.475Z,996.67
2018-02-14T00:23:48.309Z,996.63
2018-02-14T00:24:54.168Z,996.66
2018-02-14T00:25:59.989Z,996.66
2018-02-14T00:27:05.833Z,996.69
2018-02-14T00:28:11.705Z,996.70
2018-02-14T00:29:17.542Z,996.70
2018-02-14T00:30:23.359Z,996.71
2018-02-14T00:31:29.218Z,996.74
2018-02-14T00:32:35.180Z,996.78
2018-02-14T00:33:41.911Z,996.78
2018-02-14T00:34:46.765Z,996.79
2018-02-14T00:35:52.588Z,996.70
2018-02-14T00:36:59.426Z,996.76
2018-02-14T00:38:04.304Z,996.77
2018-02-14T00:39:10.126Z,996.79
2018-02-14T00:40:15.979Z,996.77
2018-02-14T00:41:21.807Z,996.82
2018-02-14T00:42:27.707Z,996.82
2018-02-14T00:43:33.506Z,996.85
2018-02-14T00:44:38.830Z,996.85
2018-02-14T00:45:45.192Z,996.90
2018-02-14T00:46:51.036Z,996.89
2018-02-14T00:47:56.905Z,996.87
2018-02-14T00:49:02.711Z,996.86
2018-02-14T00:50:08.555Z,996.86
2018-02-14T00:51:14.413Z,996.86
2018-02-14T00:52:20.273Z,996.94
2018-02-14T00:53:26.118Z,996.96
2018-02-14T00:54:31.928Z,996.94
2018-02-14T00:55:37.768Z,996.94
2018-02-14T00:56:43.617Z,996.95
2018-02-14T00:57:49.491Z,996.94
2018-02-14T00:58:55.295Z,996.92
2018-02-14T01:00:01.189Z,996.96
2018-02-14T01:01:07.009Z,996.96
2018-02-14T01:02:12.834Z,996.95
2018-02-14T01:03:18.678Z,996.93
2018-02-14T01:04:24.491Z,996.92
2018-02-14T01:05:31.331Z,996.93
2018-02-14T01:06:35.713Z,996.94
2018-02-14T01:07:42.020Z,996.94
2018-02-14T01:08:47.381Z,996.94
2018-02-14T01:09:53.717Z,996.95
2018-02-14T01:10:59.552Z,997.02
2018-02-14T01:12:05.387Z,997.01
2018-02-14T01:13:11.266Z,996.98
2018-02-14T01:14:17.073Z,997.01
2018-02-14T01:15:22.913Z,997.04
2018-02-14T01:16:28.721Z,997.05
2018-02-14T01:17:34.558Z,997.02
2018-02-14T01:18:40.434Z,997.03
2018-02-14T01:19:46.236Z,997.02
2018-02-14T01:20:52.092Z,997.02
2018-02-14T01:21:57.894Z,997.02
2018-02-14T01:23:03.805Z,997.04
2018-02-14T01:24:09.584Z,997.03
2018-02-14T01:25:15.466Z,997.05
2018-02-14T01:26:21.238Z,997.12
2018-02-14T01:27:27.206Z,997.08
2018-02-14T01:28:32.957Z,997.08
2018-02-14T01:29:38.768Z,997.05
2018-02-14T01:30:44.620Z,997.12
2018-02-14T01:31:49.940Z,997.11
2018-02-14T01:32:56.285Z,997.13
2018-02-14T01:34:01.598Z,997.13
2018-02-14T01:35:07.973Z,997.16
2018-02-14T01:36:13.769Z,997.18
2018-02-14T01:37:19.653Z,997.16
2018-02-14T01:38:25.446Z,997.17
2018-02-14T01:39:31.255Z,997.16
2018-02-14T01:40:37.263Z,997.15
2018-02-14T01:41:42.921Z,997.17
2018-02-14T01:42:48.776Z,997.23
2018-02-14T01:43:54.602Z,997.16
2018-02-14T01:45:00.410Z,997.24
2018-02-14T01:46:06.261Z,997.24
2018-02-14T01:47:11.594Z,997.20
2018-02-14T01:48:17.926Z,997.17
2018-02-14T01:49:23.736Z,997.21
2018-02-14T01:50:29.617Z,997.21
2018-02-14T01:51:35.449Z,997.23
2018-02-14T01:52:41.222Z,997.24
2018-02-14T01:53:47.193Z,997.16
2018-02-14T01:54:52.885Z,997.24
2018-02-14T01:55:58.776Z,997.22
2018-02-14T01:57:04.545Z,997.21
2018-02-14T01:58:09.900Z,997.21
2018-02-14T01:59:15.727Z,997.22
2018-02-14T02:00:22.043Z,997.13
2018-02-14T02:01:27.874Z,997.16
2018-02-14T02:02:33.715Z,997.15
2018-02-14T02:03:39.571Z,997.24
2018-02-14T02:04:45.365Z,997.19
2018-02-14T02:05:51.179Z,997.17
2018-02-14T02:06:57.082Z,997.17
2018-02-14T02:08:03.890Z,997.21
2018-02-14T02:09:08.680Z,997.16
2018-02-14T02:10:14.499Z,997.21
2018-02-14T02:11:19.839Z,997.23
2018-02-14T02:12:26.158Z,997.22
2018-02-14T02:13:32.308Z,997.22
2018-02-14T02:14:37.822Z,997.21
2018-02-14T02:15:43.690Z,997.23
2018-02-14T02:16:49.481Z,997.22
2018-02-14T02:17:55.302Z,997.22
2018-02-14T02:19:01.178Z,997.25
2018-02-14T02:20:06.955Z,997.21
2018-02-14T02:21:12.803Z,997.20
2018-02-14T02:22:18.629Z,997.25
2018-02-14T02:23:24.479Z,997.24
2018-02-14T02:24:30.303Z,997.20
2018-02-14T02:25:35.615Z,997.27
2018-02-14T02:26:41.927Z,997.30
2018-02-14T02:27:47.783Z,997.29
2018-02-14T02:28:53.636Z,997.29
2018-02-14T02:29:58.934Z,997.37
2018-02-14T02:31:05.248Z,997.35
2018-02-14T02:32:11.165Z,997.36
2018-02-14T02:33:16.924Z,997.38
2018-02-14T02:34:22.761Z,997.41
2018-02-14T02:35:28.556Z,997.43
2018-02-14T02:36:34.372Z,997.42
2018-02-14T02:37:40.215Z,997.44
2018-02-14T02:38:46.043Z,997.42
2018-02-14T02:39:51.865Z,997.43
2018-02-14T02:40:57.710Z,997.41
2018-02-14T02:42:03.540Z,997.45
2018-02-14T02:43:09.357Z,997.42
2018-02-14T02:44:15.177Z,997.44
2018-02-14T02:45:20.993Z,997.44
2018-02-14T02:46:27.788Z,997.46
2018-02-14T02:47:32.635Z,997.44
2018-02-14T02:48:38.480Z,997.47
2018-02-14T02:49:44.280Z,997.48
2018-02-14T02:50:50.111Z,997.49
2018-02-14T02:51:55.950Z,997.49
2018-02-14T02:53:01.753Z,997.46
2018-02-14T02:54:07.582Z,997.48
2018-02-14T02:55:13.394Z,997.47
2018-02-14T02:56:19.221Z,997.47
2018-02-14T02:57:25.041Z,997.45
2018-02-14T02:58:30.393Z,997.43
2018-02-14T02:59:36.222Z,997.47
2018-02-14T03:00:42.515Z,997.47
2018-02-14T03:01:48.332Z,997.46
2018-02-14T03:02:54.155Z,997.49
2018-02-14T03:04:00.050Z,997.51
2018-02-14T03:05:06.785Z,997.56
2018-02-14T03:06:11.638Z,997.57
2018-02-14T03:07:17.440Z,997.61
2018-02-14T03:08:22.806Z,997.58
2018-02-14T03:09:29.151Z,997.57
2018-02-14T03:10:35.109Z,997.60
2018-02-14T03:11:40.734Z,997.57
2018-02-14T03:12:46.548Z,997.54
2018-02-14T03:13:52.428Z,997.55
2018-02-14T03:14:57.700Z,997.60
2018-02-14T03:16:04.005Z,997.58
2018-02-14T03:17:09.845Z,997.59
2018-02-14T03:18:15.162Z,997.59
2018-02-14T03:19:21.491Z,997.63
2018-02-14T03:20:27.305Z,997.64
2018-02-14T03:21:33.142Z,997.68
2018-02-14T03:22:38.438Z,997.66
2018-02-14T03:23:44.809Z,997.63
2018-02-14T03:24:50.061Z,997.65
2018-02-14T03:25:56.374Z,997.65
2018-02-14T03:27:02.201Z,997.65
2018-02-14T03:28:08.050Z,997.64
2018-02-14T03:29:13.880Z,997.63
2018-02-14T03:30:19.684Z,997.66
2018-02-14T03:31:25.467Z,997.67
2018-02-14T03:32:31.321Z,997.65
2018-02-14T03:33:37.212Z,997.66
2018-02-14T03:34:42.953Z,997.69
2018-02-14T03:35:48.744Z,997.70
2018-02-14T03:36:54.586Z,997.72
2018-02-14T03:38:00.403Z,997.68
2018-02-14T03:39:06.233Z,997.72
2018-02-14T03:40:12.062Z,997.71
2018-02-14T03:41:17.877Z,997.68
2018-02-14T03:42:23.697Z,997.68
2018-02-14T03:43:29.508Z,997.67
2018-02-14T03:44:35.340Z,997.66
2018-02-14T03:45:40.622Z,997.71
2018-02-14T03:46:46.983Z,997.65
2018-02-14T03:47:52.774Z,997.65
2018-02-14T03:48:58.590Z,997.67
2018-02-14T03:50:04.447Z,997.62
2018-02-14T03:51:10.216Z,997.66
2018-02-14T03:52:16.057Z,997.69
2018-02-14T03:53:21.858Z,997.71
2018-02-14T03:54:28.706Z,997.69
2018-02-14T03:55:32.982Z,997.71
2018-02-14T03:56:38.825Z,997.72
2018-02-14T03:57:44.627Z,997.71
2018-02-14T03:58:50.965Z,997.74
2018-02-14T03:59:56.748Z,997.74
2018-02-14T04:01:02.562Z,997.77
2018-02-14T04:02:08.391Z,997.75
2018-02-14T04:03:14.223Z,997.73
2018-02-14T04:04:20.059Z,997.77
2018-02-14T04:05:25.871Z,997.80
2018-02-14T04:06:31.656Z,997.80
2018-02-14T04:07:37.005Z,997.84
2018-02-14T04:08:42.808Z,997.86
2018-02-14T04:09:49.194Z,997.89
2018-02-14T04:10:54.915Z,997.90
2018-02-14T04:12:00.752Z,997.90
2018-02-14T04:13:06.053Z,997.97
2018-02-14T04:14:12.384Z,997.99
2018-02-14T04:15:18.230Z,998.00
2018-02-14T04:16:23.974Z,997.98
2018-02-14T04:17:29.808Z,998.00
2018-02-14T04:18:35.641Z,998.01
2018-02-14T04:19:40.974Z,998.00
2018-02-14T04:20:47.243Z,998.02
2018-02-14T04:21:52.565Z,998.01
2018-02-14T04:22:58.870Z,998.02
2018-02-14T04:24:04.705Z,998.01
2018-02-14T04:25:10.507Z,998.02
2018-02-14T04:26:16.312Z,998.02
2018-02-14T04:27:22.114Z,998.06
2018-02-14T04:28:27.446Z,998.08
2018-02-14T04:29:33.780Z,998.06
2018-02-14T04:30:39.576Z,998.12
2018-02-14T04:31:45.403Z,998.10
2018-02-14T04:32:51.214Z,998.10
2018-02-14T04:33:57.040Z,998.10
2018-02-14T04:35:02.816Z,998.11
2018-02-14T04:36:08.634Z,998.14
2018-02-14T04:37:14.975Z,998.13
2018-02-14T04:38:20.250Z,998.11
2018-02-14T04:39:26.094Z,998.19
2018-02-14T04:40:31.894Z,998.12
2018-02-14T04:41:37.702Z,998.16
2018-02-14T04:42:43.519Z,998.15
2018-02-14T04:43:49.320Z,998.15
2018-02-14T04:44:55.183Z,998.16
2018-02-14T04:46:01.941Z,998.23
2018-02-14T04:47:06.779Z,998.24
2018-02-14T04:48:12.580Z,998.23
2018-02-14T04:49:18.424Z,998.22
2018-02-14T04:50:24.194Z,998.26
2018-02-14T04:51:30.018Z,998.25
2018-02-14T04:52:35.530Z,998.24
2018-02-14T04:53:41.619Z,998.28
2018-02-14T04:54:47.456Z,998.30
2018-02-14T04:55:53.263Z,998.28
2018-02-14T04:56:58.577Z,998.32
2018-02-14T04:58:05.861Z,998.33
2018-02-14T04:59:10.700Z,998.34
2018-02-14T05:00:16.515Z,998.40
2018-02-14T05:01:22.312Z,998.43
2018-02-14T05:02:28.123Z,998.41
2018-02-14T05:03:33.908Z,998.44
2018-02-14T05:04:39.766Z,998.46
2018-02-14T05:05:45.189Z,998.51
2018-02-14T05:06:50.851Z,998.56
2018-02-14T05:07:57.188Z,998.59
2018-02-14T05:09:03.004Z,998.61
2018-02-14T05:10:08.774Z,998.64
2018-02-14T05:11:14.594Z,998.66
2018-02-14T05:12:20.442Z,998.66
2018-02-14T05:13:25.712Z,998.66
2018-02-14T05:14:31.562Z,998.67
2018-02-14T05:15:37.848Z,998.68
2018-02-14T05:16:43.640Z,998.67
2018-02-14T05:17:49.458Z,998.68
2018-02-14T05:18:55.272Z,998.72
2018-02-14T05:20:01.171Z,998.72
2018-02-14T05:21:06.895Z,998.72
2018-02-14T05:22:12.702Z,998.75
2018-02-14T05:23:18.514Z,998.76
2018-02-14T05:24:24.349Z,998.77
2018-02-14T05:25:30.145Z,998.75
2018-02-14T05:26:35.955Z,998.82
2018-02-14T05:27:41.774Z,998.83
2018-02-14T05:28:47.578Z,998.88
2018-02-14T05:29:53.424Z,998.86
2018-02-14T05:30:59.218Z,998.85
2018-02-14T05:32:05.035Z,998.87
2018-02-14T05:33:10.880Z,998.91
2018-02-14T05:34:16.678Z,998.92
2018-02-14T05:35:22.455Z,998.99
2018-02-14T05:36:28.322Z,998.97
2018-02-14T05:37:34.094Z,998.99
2018-02-14T05:38:39.981Z,998.98
2018-02-14T05:39:45.743Z,998.94
2018-02-14T05:40:51.578Z,998.96
2018-02-14T05:41:57.354Z,999.01
2018-02-14T05:43:02.673Z,999.01
2018-02-14T05:44:09.021Z,999.04
2018-02-14T05:45:14.784Z,999.05
2018-02-14T05:46:21.552Z,999.10
2018-02-14T05:47:26.457Z,999.06
2018-02-14T05:48:32.272Z,999.05
2018-02-14T05:49:38.061Z,999.13
2018-02-14T05:50:43.903Z,999.11
2018-02-14T05:51:49.686Z,999.09
2018-02-14T05:52:55.804Z,999.18
2018-02-14T05:54:01.336Z,999.20
2018-02-14T05:55:07.176Z,999.16
2018-02-14T05:56:12.948Z,999.20
2018-02-14T05:57:18.743Z,999.21
2018-02-14T05:58:24.575Z,999.24
2018-02-14T05:59:30.412Z,999.18
2018-02-14T06:00:36.193Z,999.27
2018-02-14T06:01:42.000Z,999.24
2018-02-14T06:02:47.336Z,999.22
2018-02-14T06:03:53.660Z,999.25
2018-02-14T06:04:59.454Z,999.21
2018-02-14T06:06:05.265Z,999.20
2018-02-14T06:07:11.171Z,999.20
2018-02-14T06:08:16.399Z,999.22
2018-02-14T06:09:22.750Z,999.23
2018-02-14T06:10:29.527Z,999.24
2018-02-14T06:11:34.369Z,999.27
2018-02-14T06:12:40.240Z,999.30
2018-02-14T06:13:45.974Z,999.27
2018-02-14T06:14:51.806Z,999.34
2018-02-14T06:15:58.589Z,999.37
2018-02-14T06:17:03.443Z,999.36
2018-02-14T06:18:09.217Z,999.36
2018-02-14T06:19:14.545Z,999.41
2018-02-14T06:20:20.387Z,999.37
2018-02-14T06:21:26.673Z,999.37
2018-02-14T06:22:32.553Z,999.40
2018-02-14T06:23:38.312Z,999.45
2018-02-14T06:24:44.140Z,999.42
2018-02-14T06:25:49.955Z,999.54
2018-02-14T06:26:55.288Z,999.50
2018-02-14T06:28:01.576Z,999.52
2018-02-14T06:29:06.877Z,999.50
2018-02-14T06:30:13.213Z,999.51
2018-02-14T06:31:19.002Z,999.50
2018-02-14T06:32:24.811Z,999.53
2018-02-14T06:33:30.648Z,999.51
2018-02-14T06:34:36.445Z,999.54
2018-02-14T06:35:42.284Z,999.56
2018-02-14T06:36:48.103Z,999.57
2018-02-14T06:37:53.927Z,999.65
2018-02-14T06:38:59.696Z,999.64
2018-02-14T06:40:05.546Z,999.69
2018-02-14T06:41:11.354Z,999.73
2018-02-14T06:42:17.190Z,999.69
2018-02-14T06:43:22.966Z,999.73
2018-02-14T06:44:28.779Z,999.74
2018-02-14T06:45:34.530Z,999.78
2018-02-14T06:46:41.429Z,999.78
2018-02-14T06:47:46.250Z,999.73
2018-02-14T06:48:52.062Z,999.77
2018-02-14T06:49:57.905Z,999.73
2018-02-14T06:51:03.883Z,999.73
2018-02-14T06:52:09.554Z,999.78
2018-02-14T06:53:15.330Z,999.79
2018-02-14T06:54:20.636Z,999.84
2018-02-14T06:55:26.977Z,999.85
2018-02-14T06:56:32.779Z,999.87
2018-02-14T06:57:38.584Z,999.88
2018-02-14T06:58:43.907Z,999.87
2018-02-14T06:59:50.290Z,999.92
2018-02-14T07:00:56.075Z,999.90
2018-02-14T07:02:01.347Z,999.88
2018-02-14T07:03:08.657Z,999.85
2018-02-14T07:04:13.508Z,999.88
2018-02-14T07:05:19.336Z,999.83
2018-02-14T07:06:25.157Z,999.89
2018-02-14T07:07:30.964Z,999.84
2018-02-14T07:08:36.785Z,999.87
2018-02-14T07:09:42.599Z,999.91
2018-02-14T07:10:47.992Z,999.94
2018-02-14T07:11:53.733Z,999.88
2018-02-14T07:13:00.047Z,999.94
2018-02-14T07:14:05.381Z,999.93
2018-02-14T07:15:11.718Z,999.97
2018-02-14T07:16:17.520Z,999.97
2018-02-14T07:17:22.891Z,999.96
2018-02-14T07:18:30.156Z,999.97
2018-02-14T07:19:35.010Z,999.96
2018-02-14T07:20:40.836Z,999.99
2018-02-14T07:21:46.660Z,999.98
2018-02-14T07:22:52.503Z,999.99
2018-02-14T07:23:57.889Z,1000.02
2018-02-14T07:25:03.676Z,1000.02
2018-02-14T07:26:09.960Z,1000.04
2018-02-14T07:27:15.303Z,1000.06
2018-02-14T07:28:21.138Z,1000.04
2018-02-14T07:29:27.474Z,1000.09
2018-02-14T07:30:32.854Z,1000.08
2018-02-14T07:31:39.157Z,1000.08
2018-02-14T07:32:44.975Z,1000.09
2018-02-14T07:33:50.321Z,1000.04
2018-02-14T07:34:56.174Z,1000.05
2018-02-14T07:36:02.019Z,1000.01
2018-02-14T07:37:08.344Z,1000.09
2018-02-14T07:38:14.192Z,1000.07
2018-02-14T07:39:19.525Z,1000.06
2018-02-14T07:40:25.934Z,1000.10
2018-02-14T07:41:31.730Z,1000.12
2018-02-14T07:42:37.153Z,1000.14
2018-02-14T07:43:43.401Z,1000.14
2018-02-14T07:44:49.302Z,1000.14
2018-02-14T07:45:55.171Z,1000.14
2018-02-14T07:47:00.475Z,1000.15
2018-02-14T07:48:06.816Z,1000.14
2018-02-14T07:49:12.177Z,1000.16
2018-02-14T07:50:18.610Z,1000.18
2018-02-14T07:51:23.876Z,1000.19
2018-02-14T07:52:29.721Z,1000.16
2018-02-14T07:53:36.390Z,1000.21
2018-02-14T07:54:41.941Z,1000.23
2018-02-14T07:55:47.321Z,1000.24
2018-02-14T07:56:53.642Z,1000.26
2018-02-14T07:57:59.523Z,1000.28
2018-02-14T07:59:05.394Z,1000.26
2018-02-14T08:00:11.295Z,1000.30
2018-02-14T08:01:17.161Z,1000.26
2018-02-14T08:02:23.949Z,1000.27
2018-02-14T08:03:28.852Z,1000.27
2018-02-14T08:04:34.720Z,1000.34
2018-02-14T08:05:40.600Z,1000.32
2018-02-14T08:06:46.446Z,1000.36
2018-02-14T08:07:52.341Z,1000.36
2018-02-14T08:08:58.188Z,1000.39
2018-02-14T08:10:04.067Z,1000.42
2018-02-14T08:11:09.557Z,1000.40
2018-02-14T08:12:15.320Z,1000.40
2018-02-14T08:13:21.707Z,1000.39
2018-02-14T08:14:27.078Z,1000.41
2018-02-14T08:15:32.979Z,1000.41
2018-02-14T08:16:38.843Z,1000.42
2018-02-14T08:17:45.211Z,1000.40
2018-02-14T08:18:51.197Z,1000.43
2018-02-14T08:19:56.477Z,1000.39
2018-02-14T08:21:03.404Z,1000.44
2018-02-14T08:22:08.261Z,1000.50
2018-02-14T08:23:14.155Z,1000.50
2018-02-14T08:24:20.551Z,1000.47
2018-02-14T08:25:26.453Z,1000.50
2018-02-14T08:26:32.432Z,1000.53
2018-02-14T08:27:38.308Z,1000.55
2018-02-14T08:28:44.090Z,1000.52
2018-02-14T08:29:49.985Z,1000.55
2018-02-14T08:30:55.425Z,1000.49
2018-02-14T08:32:01.291Z,1000.53
2018-02-14T08:33:07.685Z,1000.52
2018-02-14T08:34:13.574Z,1000.56
2018-02-14T08:35:19.480Z,1000.54
2018-02-14T08:36:24.878Z,1000.49
2018-02-14T08:37:30.768Z,1000.53
2018-02-14T08:38:36.672Z,1000.53
2018-02-14T08:39:44.079Z,1000.52
2018-02-14T08:40:50.000Z,1000.57
2018-02-14T08:41:54.389Z,1000.58
2018-02-14T08:43:00.290Z,1000.60
2018-02-14T08:44:06.708Z,1000.60
2018-02-14T08:45:12.593Z,1000.61
2018-02-14T08:46:19.538Z,1000.62
2018-02-14T08:47:25.419Z,1000.65
2018-02-14T08:48:29.819Z,1000.67
2018-02-14T08:49:35.742Z,1000.67
2018-02-14T08:50:42.209Z,1000.70
2018-02-14T08:51:48.060Z,1000.71
2018-02-14T08:52:53.972Z,1000.73
2018-02-14T08:53:59.384Z,1000.67
2018-02-14T08:55:05.299Z,1000.75
2018-02-14T08:56:11.249Z,1000.75
2018-02-14T08:57:17.665Z,1000.78
2018-02-14T08:58:23.027Z,1000.78
2018-02-14T08:59:28.957Z,1000.80
2018-02-14T09:00:35.873Z,1000.78
2018-02-14T09:01:40.790Z,1000.85
2018-02-14T09:02:46.695Z,1000.82
2018-02-14T09:03:52.611Z,1000.84
2018-02-14T09:04:59.043Z,1000.82
2018-02-14T09:06:04.469Z,1000.83
2018-02-14T09:07:10.875Z,1000.85
2018-02-14T09:08:16.306Z,1000.91
2018-02-14T09:09:22.235Z,1000.88
2018-02-14T09:10:28.184Z,1000.95
2018-02-14T09:11:34.082Z,1000.99
2018-02-14T09:12:39.997Z,1000.97
2018-02-14T09:13:45.934Z,1001.00
2018-02-14T09:14:51.849Z,1000.98
2018-02-14T09:15:58.287Z,1000.99
2018-02-14T09:17:04.209Z,1000.97
2018-02-14T09:18:09.632Z,1000.98
2018-02-14T09:19:16.066Z,1000.96
2018-02-14T09:20:22.002Z,1001.00
2018-02-14T09:21:27.989Z,1001.00
2018-02-14T09:22:33.902Z,1001.00
2018-02-14T09:23:39.350Z,1000.97
2018-02-14T09:24:45.297Z,1000.98
2018-02-14T09:25:51.284Z,1001.00
2018-02-14T09:26:57.715Z,1001.00
2018-02-14T09:28:03.647Z,1000.99
2018-02-14T09:29:09.611Z,1001.00
2018-02-14T09:30:15.148Z,1001.01
2018-02-14T09:31:21.548Z,1001.01
2018-02-14T09:32:26.984Z,1001.03
2018-02-14T09:33:32.920Z,1001.08
2018-02-14T09:34:38.879Z,1001.07
2018-02-14T09:35:44.862Z,1001.06
2018-02-14T09:36:51.281Z,1001.12
2018-02-14T09:37:57.228Z,1001.12
2018-02-14T09:39:02.697Z,1001.17
2018-02-14T09:40:09.170Z,1001.22
2018-02-14T09:41:14.627Z,1001.20
2018-02-14T09:42:21.044Z,1001.23
2018-02-14T09:43:27.026Z,1001.26
2018-02-14T09:44:32.456Z,1001.27
2018-02-14T09:45:38.435Z,1001.25
2018-02-14T09:46:44.360Z,1001.24
2018-02-14T09:47:50.329Z,1001.22
2018-02-14T09:48:56.761Z,1001.20
2018-02-14T09:50:02.729Z,1001.25
2018-02-14T09:51:08.207Z,1001.19
2018-02-14T09:52:14.143Z,1001.22
2018-02-14T09:53:20.586Z,1001.25
2018-02-14T09:54:26.104Z,1001.24
2018-02-14T09:55:32.019Z,1001.28
2018-02-14T09:56:38.470Z,1001.25
2018-02-14T09:57:43.916Z,1001.28
2018-02-14T09:58:50.363Z,1001.32
2018-02-14T09:59:55.848Z,1001.34
2018-02-14T10:01:01.817Z,1001.38
2018-02-14T10:02:08.245Z,1001.37
2018-02-14T10:03:14.198Z,1001.34
2018-02-14T10:04:20.173Z,1001.34
2018-02-14T10:05:25.634Z,1001.36
2018-02-14T10:06:31.611Z,1001.37
2018-02-14T10:07:38.044Z,1001.39
2018-02-14T10:08:43.521Z,1001.37
2018-02-14T10:09:49.493Z,1001.42
2018-02-14T10:10:55.992Z,1001.42
2018-02-14T10:12:01.447Z,1001.46
2018-02-14T10:13:07.384Z,1001.46
2018-02-14T10:14:13.831Z,1001.52
2018-02-14T10:15:19.304Z,1001.53
2018-02-14T10:16:25.786Z,1001.56
2018-02-14T10:17:31.244Z,1001.58
2018-02-14T10:18:37.207Z,1001.62
2018-02-14T10:19:43.188Z,1001.63
2018-02-14T10:20:49.174Z,1001.64
2018-02-14T10:21:55.135Z,1001.67
2018-02-14T10:23:01.102Z,1001.65
2018-02-14T10:24:07.583Z,1001.61
2018-02-14T10:25:13.158Z,1001.65
2018-02-14T10:26:19.594Z,1001.67
2018-02-14T10:27:25.368Z,1001.69
2018-02-14T10:28:31.038Z,1001.68
2018-02-14T10:29:37.042Z,1001.72
2018-02-14T10:30:43.044Z,1001.67
2018-02-14T10:31:49.545Z,1001.70
2018-02-14T10:32:55.012Z,1001.68
2018-02-14T10:34:01.005Z,1001.67
2018-02-14T10:35:07.013Z,1001.61
2018-02-14T10:36:13.027Z,1001.58
2018-02-14T10:37:19.015Z,1001.59
2018-02-14T10:38:25.024Z,1001.52
2018-02-14T10:39:31.011Z,1001.50
2018-02-14T10:40:37.025Z,1001.48
2018-02-14T10:41:43.051Z,1001.45
2018-02-14T10:42:49.038Z,1001.46
2018-02-14T10:43:55.546Z,1001.38
2018-02-14T10:45:01.560Z,1001.40
2018-02-14T10:46:07.581Z,1001.34
2018-02-14T10:47:13.174Z,1001.33
2018-02-14T10:48:19.602Z,1001.29
2018-02-14T10:49:25.141Z,1001.26
2018-02-14T10:50:31.629Z,1001.27
2018-02-14T10:51:37.662Z,1001.26
2018-02-14T10:52:43.173Z,1001.29
2018-02-14T10:53:49.195Z,1001.31
2018-02-14T10:54:55.208Z,1001.36
2018-02-14T10:56:01.737Z,1001.36
2018-02-14T10:57:07.262Z,1001.37
2018-02-14T10:58:13.771Z,1001.38
2018-02-14T10:59:19.301Z,1001.38
2018-02-14T11:00:25.839Z,1001.37
2018-02-14T11:01:31.372Z,1001.35
2018-02-14T11:02:37.373Z,1001.35
2018-02-14T11:03:43.895Z,1001.33
2018-02-14T11:04:49.924Z,1001.32
2018-02-14T11:05:55.462Z,1001.30
2018-02-14T11:07:01.525Z,1001.26
2018-02-14T11:08:07.527Z,1001.21
2018-02-14T11:09:14.543Z,1001.22
2018-02-14T11:10:19.585Z,1001.16
2018-02-14T11:11:25.633Z,1001.19
2018-02-14T11:12:32.137Z,1001.16
2018-02-14T11:13:37.692Z,1001.16
2018-02-14T11:14:43.715Z,1001.14
2018-02-14T11:15:49.764Z,1001.18
2018-02-14T11:16:55.822Z,1001.15
2018-02-14T11:18:02.857Z,1001.22
2018-02-14T11:19:07.879Z,1001.23
2018-02-14T11:20:13.933Z,1001.28
2018-02-14T11:21:20.001Z,1001.29
2018-02-14T11:22:26.258Z,1001.26
2018-02-14T11:23:32.550Z,1001.19
2018-02-14T11:24:38.095Z,1001.19
2018-02-14T11:25:44.141Z,1001.15
2018-02-14T11:26:50.218Z,1001.18
2018-02-14T11:27:56.248Z,1001.13
2018-02-14T11:29:02.282Z,1001.12
2018-02-14T11:30:08.327Z,1001.08
2018-02-14T11:31:14.396Z,1001.08
2018-02-14T11:32:20.422Z,1001.09
2018-02-14T11:33:27.470Z,1001.06
2018-02-14T11:34:33.254Z,1001.05
2018-02-14T11:35:38.580Z,1001.01
2018-02-14T11:36:44.657Z,1001.00
2018-02-14T11:37:50.689Z,1000.97
2018-02-14T11:38:56.736Z,1000.95
2018-02-14T11:40:02.808Z,1000.92
2018-02-14T11:41:08.859Z,1000.93
2018-02-14T11:42:14.943Z,1000.87
2018-02-14T11:43:21.003Z,1000.88
2018-02-14T11:44:27.105Z,1000.82
2018-02-14T11:45:33.212Z,1000.88
2018-02-14T11:46:39.365Z,1000.89
2018-02-14T11:47:46.474Z,1000.92
2018-02-14T11:48:51.641Z,1000.93
2018-02-14T11:49:57.796Z,1000.94
2018-02-14T11:51:03.960Z,1000.95
2018-02-14T11:52:10.659Z,1000.93
2018-02-14T11:53:16.835Z,1000.90
2018-02-14T11:54:23.040Z,1000.91
2018-02-14T11:55:28.788Z,1000.86
2018-02-14T11:56:35.036Z,1000.85
2018-02-14T11:57:41.784Z,1000.82
2018-02-14T11:58:47.532Z,1000.80
2018-02-14T11:59:53.802Z,1000.83
2018-02-14T12:01:00.161Z,1000.83
2018-02-14T12:02:06.417Z,1000.89
2018-02-14T12:03:12.693Z,1000.92
2018-02-14T12:04:19.493Z,1000.91
2018-02-14T12:05:25.517Z,1000.93
2018-02-14T12:06:31.690Z,1000.91
2018-02-14T12:07:38.003Z,1000.94
2018-02-14T12:08:44.351Z,1000.90
2018-02-14T12:09:50.706Z,1000.93
2018-02-14T12:10:57.077Z,1000.89
2018-02-14T12:12:03.457Z,1000.87
2018-02-14T12:13:09.829Z,1000.78
2018-02-14T12:14:16.195Z,1000.84
2018-02-14T12:15:22.577Z,1000.86
2018-02-14T12:16:28.997Z,1000.90
2018-02-14T12:17:35.866Z,1000.87
2018-02-14T12:18:41.777Z,1000.86
2018-02-14T12:19:48.198Z,1000.87
2018-02-14T12:20:54.591Z,1000.88
2018-02-14T12:22:01.027Z,1000.85
2018-02-14T12:23:07.409Z,1000.86
2018-02-14T12:24:13.837Z,1000.84
2018-02-14T12:25:20.273Z,1000.78
2018-02-14T12:26:26.727Z,1000.81
2018-02-14T12:27:33.143Z,1000.77
2018-02-14T12:28:39.599Z,1000.70
2018-02-14T12:29:46.035Z,1000.70
2018-02-14T12:30:52.997Z,1000.71
2018-02-14T12:31:58.971Z,1000.70
2018-02-14T12:33:05.417Z,1000.68
2018-02-14T12:34:11.889Z,1000.68
2018-02-14T12:35:18.375Z,1000.61
2018-02-14T12:36:24.844Z,1000.66
2018-02-14T12:37:31.310Z,1000.64
2018-02-14T12:38:38.268Z,1000.63
2018-02-14T12:39:44.757Z,1000.62
2018-02-14T12:40:51.233Z,1000.64
2018-02-14T12:41:57.568Z,1000.57
2018-02-14T12:43:03.732Z,1000.62
2018-02-14T12:44:10.238Z,1000.53
2018-02-14T12:45:17.226Z,1000.55
2018-02-14T12:46:23.240Z,1000.53
2018-02-14T12:47:29.770Z,1000.55
2018-02-14T12:48:36.247Z,1000.49
2018-02-14T12:49:42.735Z,1000.50
2018-02-14T12:50:49.745Z,1000.48
2018-02-14T12:51:55.771Z,1000.51
2018-02-14T12:53:02.262Z,1000.48
2018-02-14T12:54:08.760Z,1000.46
2018-02-14T12:55:15.759Z,1000.49
2018-02-14T12:56:22.752Z,1000.45
2018-02-14T12:57:28.782Z,1000.40
2018-02-14T12:58:34.768Z,1000.41
2018-02-14T12:59:41.279Z,1000.44
2018-02-14T13:00:47.779Z,1000.41
2018-02-14T13:01:54.820Z,1000.46
2018-02-14T13:03:01.294Z,1000.42
2018-02-14T13:04:07.320Z,1000.43
2018-02-14T13:05:13.824Z,1000.38
2018-02-14T13:06:20.330Z,1000.42
2018-02-14T13:07:27.368Z,1000.38
2018-02-14T13:08:33.385Z,1000.41
2018-02-14T13:09:39.898Z,1000.40
2018-02-14T13:10:47.431Z,1000.42
2018-02-14T13:11:52.998Z,1000.36
2018-02-14T13:13:00.014Z,1000.37
2018-02-14T13:14:06.143Z,1000.41
2018-02-14T13:15:12.601Z,1000.34
2018-02-14T13:16:19.162Z,1000.34
2018-02-14T13:17:25.748Z,1000.31
2018-02-14T13:18:32.271Z,1000.35
2018-02-14T13:19:39.353Z,1000.32
2018-02-14T13:20:45.415Z,1000.34
2018-02-14T13:21:52.007Z,1000.39
2018-02-14T13:22:58.561Z,1000.36
2018-02-14T13:24:05.160Z,1000.28
2018-02-14T13:25:11.740Z,1000.36
2018-02-14T13:26:18.345Z,1000.36
2018-02-14T13:27:24.952Z,1000.37
2018-02-14T13:28:31.538Z,1000.38
2018-02-14T13:29:38.628Z,1000.35
2018-02-14T13:30:44.740Z,1000.35
2018-02-14T13:31:51.367Z,1000.37